Upland, PA

7:32 PM EDT on June 23, 2017 (GMT -0400)
Widener Observatory | | Change Station
Active Advisory: Severe Thunderstorm Watch

Elev 85 ft 39.86 °N, 75.36 °W | Updated 22 seconds ago

Mostly Cloudy
Mostly Cloudy
83.8 °F
Feels Like 91 °F
N
15.0
Wind Variable Wind from SSW
Gusts 22.0 mph

Today
High -- | Low -- °F
--% Chance of Precip.
Yesterday
High -- | Low -- °F
Precip. -- in
Pressure 29.67 in
Visibility 10.0 miles
Clouds Scattered Clouds 3100 ft
Mostly Cloudy 4500 ft
Mostly Cloudy 15000 ft
Mostly Cloudy 25000 ft
Heat Index 91 °F
Dew Point 75 °F
Humidity 74%
Rainfall 0.04 in
Snow Depth Not available.
5:33 AM 8:33 PM
Waning Crescent, 0% visible
METAR KPHL 232254Z 21021G30KT 10SM SCT031 BKN045 BKN150 BKN250 29/22 A2967 RMK AO2 PK WND 22030/2252 LTG DSNT N SLP047 T02940222 $
Pressure 29.67 in
Visibility 10.0 miles
Clouds Scattered Clouds 3100 ft
Mostly Cloudy 4500 ft
Mostly Cloudy 15000 ft
Mostly Cloudy 25000 ft
Heat Index 91 °F
Dew Point 75 °F
Humidity 74%
Rainfall 0.04 in
Snow Depth Not available.
5:33 AM 8:33 PM
Waning Crescent, 0% visible
METAR KPHL 232254Z 21021G30KT 10SM SCT031 BKN045 BKN150 BKN250 29/22 A2967 RMK AO2 PK WND 22030/2252 LTG DSNT N SLP047 T02940222 $

Get Your Daily Forecast Email!

Thanks for signing up!

Be on the lookout for a verification email in your inbox.

You'll start receiving severe weather alerts in your inbox..

×

10-Day Weather Forecast

Almanac

Astronomy

Jun. 23, 2017 Rise Set
Actual Time
Civil Twilight
Nautical Twilight
Astronomical Twilight
Moon
Length of Visible Light
Length of Day
Tomorrow will be .
, % of the Moon is Illuminated

Today's Extremes

State Highs State Lows

Community

WunderPhotos

Category 6

Welcome to Category 6. This is the collective home for Weather Underground's featured writeups by Dr. Jeff Masters (right), Bob Henson (left), Chris Burt, and other regular contributors.

Nearby

Air Quality

  Air Quality AQ Index Pollutant
Not available.

Snow Depth

Station Depth Elevation

Earthquake Activity

City Distance Mag. Time & Date
Minimum magnitude displayed is 2.5.

Coastal Water Temperatures

Place Temperature

Stations

Nearby Weather Stations

Station Location Temp. Windchill Dew Point Humidity Wind Precip. Elev Updated Type
                   

Watches & Warnings

Severe Thunderstorm Watch
Issued: 7:24 PM EDT Jun. 23, 2017 – National Weather Service

Severe Thunderstorm Watch 369 remains in effect until 1000 PM EDT

PA
. Pennsylvania counties included are

Berks Bucks Carbon
Chester Delaware Lehigh
Monroe Montgomery Northampton
Philadelphia